SCRN weather

Río Negro Airport
Río Negro, Los Lagos Region, Chile

Public forecast

Using degrees Celsius for public forecast. Weather courtesy of forecast.io.

Closest aviation weather report (METAR) to Río Negro Airport

Closest report is El Tepual Airport, 42.6 nm (78.8 km) NW. Retrieved 2020/07/16 16:00 UTC (42 minutes ago):

SCTE 161600Z 02014KT 9999 OVC040 11/08 Q1011 NOSIG

Closest aviation forecast (TAF) to Río Negro Airport

Closest forecast is El Tepual Airport, 42.6 nm (78.8 km) NW. Retrieved 2020/07/16 12:00 UTC (5 hours ago):

TAF SCTE 161059Z 1612/1712 02010KT 9999 SCT030 TN08/1612Z TX12/1618Z BECMG 1613/1615 02020KT BKN040 BKN120 BECMG 1616/1618 5000 RA BKN030 BKN100 TEMPO 1706/1712 8000 RA BKN020 OVC050